Time;durP1;ratioP1;P1;durP2;ratioP2;P2;SDS_P1;SDS_P2;PMS_P1;PMS_P2;Temp;Humidity;BMP_temperature;BMP_pressure;BME280_temperature;BME280_humidity;BME280_pressure;Samples;Min_cycle;Max_cycle;Signal;HPM_P1;HPM_P2
2023/10/03 00:00:32;;;;;;;42.95;27.25;;;17.10;99.90;;;;;;4988180;28;20038;-75
2023/10/03 00:03:00;;;;;;;42.38;26.33;;;17.10;99.90;;;;;;4966425;28;20049;-75
2023/10/03 00:05:28;;;;;;;41.90;26.00;;;17.10;99.90;;;;;;5022737;28;20077;-75
2023/10/03 00:07:55;;;;;;;43.47;26.40;;;17.10;99.90;;;;;;5004227;28;20068;-75
2023/10/03 00:10:22;;;;;;;45.40;26.92;;;17.10;99.90;;;;;;4976771;28;20556;-75
2023/10/03 00:12:48;;;;;;;40.40;25.40;;;17.00;99.90;;;;;;4980852;28;20077;-75
2023/10/03 00:15:18;;;;;;;41.72;25.02;;;17.00;99.90;;;;;;5005479;28;20120;-75
2023/10/03 00:17:44;;;;;;;41.08;24.38;;;17.00;99.90;;;;;;4984449;28;20452;-75
2023/10/03 00:20:12;;;;;;;39.92;25.30;;;17.00;99.90;;;;;;4988965;28;20038;-75
2023/10/03 00:22:39;;;;;;;37.20;24.08;;;17.00;99.90;;;;;;4984271;28;20103;-75
2023/10/03 00:25:07;;;;;;;39.15;23.75;;;17.00;99.90;;;;;;4975372;28;20053;-75
2023/10/03 00:27:35;;;;;;;37.97;24.33;;;16.90;99.90;;;;;;4981166;28;20200;-75
2023/10/03 00:30:06;;;;;;;40.40;24.98;;;17.00;99.90;;;;;;4981384;28;20440;-75
2023/10/03 00:32:32;;;;;;;35.17;23.63;;;16.90;99.90;;;;;;4984549;28;20041;-75
2023/10/03 00:34:59;;;;;;;39.88;23.30;;;16.90;99.90;;;;;;4961652;28;20050;-75
2023/10/03 00:37:25;;;;;;;40.58;24.58;;;16.90;99.90;;;;;;4969763;28;20038;-75
2023/10/03 00:39:51;;;;;;;37.38;24.15;;;16.90;99.90;;;;;;4988595;28;20197;-75
2023/10/03 00:42:17;;;;;;;42.22;24.60;;;16.90;99.90;;;;;;4988885;28;20045;-75
2023/10/03 00:44:44;;;;;;;40.35;24.30;;;16.90;99.90;;;;;;4994985;28;20049;-75
2023/10/03 00:47:10;;;;;;;35.92;22.73;;;16.90;99.90;;;;;;5013358;28;20049;-75
2023/10/03 00:49:36;;;;;;;36.20;23.00;;;16.80;99.90;;;;;;4983888;28;20050;-75
2023/10/03 00:52:05;;;;;;;40.28;24.02;;;16.80;99.90;;;;;;4988408;28;20055;-75
2023/10/03 00:54:32;;;;;;;41.17;23.58;;;16.80;99.90;;;;;;4999067;28;20046;-75
2023/10/03 00:56:58;;;;;;;36.90;22.65;;;16.80;99.90;;;;;;5008416;28;20469;-75
2023/10/03 00:59:24;;;;;;;36.65;23.73;;;16.80;99.90;;;;;;4984052;28;20113;-75
2023/10/03 01:01:50;;;;;;;35.70;23.25;;;16.80;99.90;;;;;;4986838;28;20053;-75
2023/10/03 01:04:19;;;;;;;34.22;22.10;;;16.80;99.90;;;;;;4974071;28;20038;-75
2023/10/03 01:06:49;;;;;;;37.40;23.08;;;16.80;99.90;;;;;;4970261;28;20034;-75
2023/10/03 01:09:23;;;;;;;36.35;23.40;;;16.80;99.90;;;;;;4991606;28;20466;-75
2023/10/03 01:11:52;;;;;;;36.70;23.15;;;16.80;99.90;;;;;;4991376;28;20065;-75
2023/10/03 01:14:18;;;;;;;33.25;21.30;;;16.80;99.90;;;;;;4976571;28;20042;-75
2023/10/03 01:16:45;;;;;;;37.47;23.48;;;16.80;99.90;;;;;;5010321;28;20397;-75
2023/10/03 01:19:32;;;;;;;37.17;22.48;;;16.80;99.90;;;;;;5014904;28;20048;-75
2023/10/03 01:21:58;;;;;;;35.85;22.20;;;16.80;99.90;;;;;;5000764;28;20042;-74
2023/10/03 01:24:24;;;;;;;35.00;22.33;;;16.80;99.90;;;;;;4980941;28;20042;-75
2023/10/03 01:26:53;;;;;;;35.42;21.80;;;16.80;99.90;;;;;;4967437;28;20060;-75
2023/10/03 01:29:21;;;;;;;34.63;21.58;;;16.80;99.90;;;;;;5007300;28;20117;-75
2023/10/03 01:31:48;;;;;;;37.28;22.80;;;16.80;99.90;;;;;;4994122;28;20041;-75
2023/10/03 01:34:15;;;;;;;34.85;22.90;;;16.80;99.90;;;;;;5004628;28;20046;-75
2023/10/03 01:36:42;;;;;;;35.50;21.55;;;16.80;99.90;;;;;;4970067;28;20049;-75
2023/10/03 01:39:08;;;;;;;37.80;22.08;;;16.80;99.90;;;;;;4991764;28;20042;-75
2023/10/03 01:41:37;;;;;;;37.67;22.35;;;16.70;99.90;;;;;;4998218;28;20037;-75
2023/10/03 01:44:03;;;;;;;36.30;20.95;;;16.70;99.90;;;;;;5013085;28;20030;-75
2023/10/03 01:46:29;;;;;;;35.13;21.42;;;16.80;99.90;;;;;;4969667;28;20089;-75
2023/10/03 01:48:56;;;;;;;34.38;21.08;;;16.70;99.90;;;;;;5007551;28;20131;-75
2023/10/03 01:51:22;;;;;;;36.90;21.25;;;16.70;99.90;;;;;;4993406;28;20413;-75
2023/10/03 01:53:48;;;;;;;33.45;20.83;;;16.70;99.90;;;;;;5005919;28;20030;-75
2023/10/03 01:56:14;;;;;;;41.40;22.88;;;16.60;99.90;;;;;;4964083;28;20030;-75
2023/10/03 01:58:40;;;;;;;34.08;22.40;;;16.70;99.90;;;;;;5008104;28;20046;-75
2023/10/03 02:01:05;;;;;;;39.28;22.27;;;16.70;99.90;;;;;;4991848;28;20503;-75
2023/10/03 02:03:32;;;;;;;32.50;19.63;;;16.70;99.90;;;;;;5008085;28;20149;-75
2023/10/03 02:05:58;;;;;;;34.13;21.38;;;16.70;99.90;;;;;;4964093;28;20121;-75
2023/10/03 02:08:25;;;;;;;32.97;20.73;;;16.70;99.90;;;;;;5014403;28;20139;-75
2023/10/03 02:10:52;;;;;;;32.47;20.65;;;16.60;99.90;;;;;;5014280;28;20096;-75
2023/10/03 02:13:21;;;;;;;34.38;21.17;;;16.60;99.90;;;;;;4998479;28;20030;-75
2023/10/03 02:15:52;;;;;;;35.42;20.35;;;16.60;99.90;;;;;;4990272;28;20052;-75
2023/10/03 02:18:19;;;;;;;34.47;21.05;;;16.60;99.90;;;;;;5010989;28;20044;-75
2023/10/03 02:20:52;;;;;;;33.85;21.55;;;16.60;99.90;;;;;;4990569;28;20034;-75
2023/10/03 02:23:25;;;;;;;34.95;21.23;;;16.60;99.90;;;;;;5000708;28;20042;-75
2023/10/03 02:25:53;;;;;;;34.58;21.13;;;16.50;99.90;;;;;;5002456;28;20038;-75
2023/10/03 02:28:20;;;;;;;31.67;20.58;;;16.60;99.90;;;;;;5009783;28;20045;-75
2023/10/03 02:30:49;;;;;;;37.65;21.10;;;16.60;99.90;;;;;;5004634;28;20490;-76
2023/10/03 02:33:15;;;;;;;35.75;21.50;;;16.50;99.90;;;;;;4989706;28;20045;-75
2023/10/03 02:35:43;;;;;;;35.03;21.30;;;16.60;99.90;;;;;;4965279;28;20047;-75
2023/10/03 02:38:13;;;;;;;36.53;21.80;;;16.50;99.90;;;;;;4994593;28;20068;-76
2023/10/03 02:40:40;;;;;;;35.33;20.83;;;16.50;99.90;;;;;;4992000;28;20034;-75
2023/10/03 02:43:07;;;;;;;32.60;20.25;;;16.50;99.90;;;;;;4974150;28;20046;-75
2023/10/03 02:45:34;;;;;;;32.47;21.05;;;16.50;99.90;;;;;;4986341;28;20041;-75
2023/10/03 02:48:07;;;;;;;36.22;21.13;;;16.50;99.90;;;;;;4993322;28;20046;-75
2023/10/03 02:50:34;;;;;;;35.15;20.45;;;16.50;99.90;;;;;;5007981;28;20557;-75
2023/10/03 02:53:05;;;;;;;33.53;20.98;;;16.50;99.90;;;;;;4992436;28;20149;-75
2023/10/03 02:55:30;;;;;;;32.95;20.50;;;16.50;99.90;;;;;;5004992;28;20037;-75
2023/10/03 02:57:56;;;;;;;36.80;21.75;;;16.50;99.90;;;;;;4998029;28;20038;-75
2023/10/03 03:00:22;;;;;;;37.60;20.90;;;16.50;99.90;;;;;;5007355;28;20041;-75
2023/10/03 03:02:48;;;;;;;36.33;22.05;;;16.50;99.90;;;;;;4975806;28;20406;-75
2023/10/03 03:05:17;;;;;;;34.70;21.33;;;16.50;99.90;;;;;;4984588;28;20128;-75
2023/10/03 03:07:48;;;;;;;32.90;20.08;;;16.40;99.90;;;;;;4984201;28;20398;-75
2023/10/03 03:10:16;;;;;;;34.15;20.55;;;16.40;99.90;;;;;;4991786;28;20042;-75
2023/10/03 03:12:43;;;;;;;31.98;20.35;;;16.40;99.90;;;;;;4989238;28;20046;-75
2023/10/03 03:15:11;;;;;;;35.17;22.10;;;16.40;99.90;;;;;;5009597;28;20038;-75
2023/10/03 03:17:40;;;;;;;35.75;20.67;;;16.40;99.90;;;;;;4997321;28;20091;-75
2023/10/03 03:20:24;;;;;;;36.97;20.25;;;16.40;99.90;;;;;;5001750;28;20050;-75
2023/10/03 03:22:53;;;;;;;32.78;20.38;;;16.40;99.90;;;;;;4977097;28;20050;-75
2023/10/03 03:25:25;;;;;;;37.08;21.38;;;16.40;99.90;;;;;;4985238;28;20412;-75
2023/10/03 03:27:57;;;;;;;35.63;19.63;;;16.40;99.90;;;;;;5000501;28;20523;-75
2023/10/03 03:32:57;;;;;;;34.10;21.15;;;16.50;99.90;;;;;;4985022;28;20069;-75
2023/10/03 03:35:26;;;;;;;29.38;18.85;;;16.50;99.90;;;;;;5011155;28;20049;-75
2023/10/03 03:37:57;;;;;;;33.80;19.58;;;16.40;99.90;;;;;;4994855;28;20451;-75
2023/10/03 03:40:31;;;;;;;27.40;18.63;;;16.50;99.90;;;;;;4987085;28;20038;-75
2023/10/03 03:43:00;;;;;;;32.88;19.42;;;16.60;99.90;;;;;;5005610;28;20497;-75
2023/10/03 03:45:26;;;;;;;32.38;19.02;;;16.70;99.90;;;;;;4984329;28;20042;-75
2023/10/03 03:47:54;;;;;;;30.70;19.17;;;16.80;99.90;;;;;;4988840;28;20052;-75
2023/10/03 03:50:21;;;;;;;33.55;19.42;;;16.90;99.90;;;;;;4983383;28;20041;-76
2023/10/03 03:52:48;;;;;;;32.25;19.13;;;16.90;99.90;;;;;;4962852;28;20145;-75
2023/10/03 03:55:17;;;;;;;32.97;19.35;;;16.90;99.90;;;;;;4972811;28;20030;-75
2023/10/03 03:57:43;;;;;;;33.90;19.25;;;17.00;99.90;;;;;;4992841;28;20034;-75
2023/10/03 04:00:18;;;;;;;31.98;18.50;;;17.10;99.90;;;;;;4969908;28;20042;-75
2023/10/03 04:02:43;;;;;;;30.65;17.95;;;17.20;99.90;;;;;;5003160;28;20042;-75
2023/10/03 04:05:12;;;;;;;34.08;19.08;;;17.30;99.90;;;;;;4985764;28;20042;-75
2023/10/03 04:07:38;;;;;;;32.88;18.10;;;17.40;99.90;;;;;;4978740;28;20038;-75
2023/10/03 04:10:13;;;;;;;33.40;18.15;;;17.50;99.90;;;;;;4988907;28;20045;-75
2023/10/03 04:12:42;;;;;;;33.15;19.20;;;17.70;99.90;;;;;;4969161;28;20034;-75
2023/10/03 04:15:18;;;;;;;35.67;17.70;;;17.70;99.90;;;;;;4987956;28;20046;-75
2023/10/03 04:17:46;;;;;;;28.35;17.70;;;17.70;99.90;;;;;;5008042;28;20488;-75
2023/10/03 04:20:30;;;;;;;29.20;18.00;;;17.80;99.90;;;;;;4992231;28;20034;-75
2023/10/03 04:22:57;;;;;;;31.92;18.08;;;17.80;99.90;;;;;;4975255;28;20074;-75
2023/10/03 04:25:23;;;;;;;29.23;17.23;;;17.90;99.90;;;;;;4988203;28;20042;-75
2023/10/03 04:27:53;;;;;;;32.40;17.90;;;17.80;99.90;;;;;;4972570;28;20540;-75
2023/10/03 04:30:23;;;;;;;32.47;18.10;;;17.90;99.90;;;;;;5002580;28;20033;-75
2023/10/03 04:32:49;;;;;;;29.67;17.88;;;17.90;99.90;;;;;;4977317;28;20096;-76
2023/10/03 04:35:17;;;;;;;34.70;19.00;;;17.90;99.90;;;;;;5003459;28;20049;-75
2023/10/03 04:37:44;;;;;;;34.00;18.45;;;17.90;99.90;;;;;;5007854;28;20038;-75
2023/10/03 04:40:12;;;;;;;32.92;18.35;;;17.90;99.90;;;;;;4982186;28;20042;-75
2023/10/03 04:42:38;;;;;;;30.48;17.67;;;17.90;99.90;;;;;;4967413;28;20076;-75
2023/10/03 04:45:07;;;;;;;28.67;17.13;;;17.90;99.90;;;;;;5003302;28;20077;-75
2023/10/03 04:47:33;;;;;;;33.10;17.25;;;17.90;99.90;;;;;;4976456;28;20053;-76
2023/10/03 04:50:02;;;;;;;29.88;17.15;;;17.90;99.90;;;;;;4960856;28;20649;-75
2023/10/03 04:52:28;;;;;;;30.27;17.35;;;17.80;99.90;;;;;;4974268;28;20038;-75
2023/10/03 04:54:53;;;;;;;31.08;17.05;;;17.80;99.90;;;;;;4987347;28;20038;-75
2023/10/03 04:57:19;;;;;;;33.35;17.25;;;17.90;99.90;;;;;;4992940;28;20042;-75
2023/10/03 04:59:45;;;;;;;30.35;17.23;;;17.90;99.90;;;;;;4972940;28;20035;-75
2023/10/03 05:02:11;;;;;;;30.02;17.65;;;17.90;99.90;;;;;;4990329;28;20046;-75
2023/10/03 05:04:37;;;;;;;30.48;16.83;;;17.90;99.90;;;;;;4977382;28;20039;-75
2023/10/03 05:07:03;;;;;;;27.70;16.25;;;17.90;99.90;;;;;;4983419;28;20049;-75
2023/10/03 05:09:32;;;;;;;27.30;16.55;;;17.90;99.90;;;;;;5008213;28;20096;-75
2023/10/03 05:11:57;;;;;;;27.70;15.57;;;18.00;99.90;;;;;;4994040;28;20050;-75
2023/10/03 05:14:23;;;;;;;31.98;16.35;;;18.00;99.90;;;;;;4985300;28;20048;-75
2023/10/03 05:16:50;;;;;;;30.23;17.10;;;18.00;99.90;;;;;;4990632;28;20073;-75
2023/10/03 05:19:21;;;;;;;28.30;16.35;;;18.00;99.90;;;;;;5007814;28;20049;-75
2023/10/03 05:21:47;;;;;;;28.48;16.33;;;18.00;99.90;;;;;;4986058;28;20037;-75
2023/10/03 05:24:15;;;;;;;28.58;15.32;;;18.10;99.90;;;;;;5002221;28;20319;-75
2023/10/03 05:26:41;;;;;;;28.80;15.75;;;18.10;99.90;;;;;;4963470;28;20092;-76
2023/10/03 05:29:07;;;;;;;25.77;15.13;;;18.20;99.90;;;;;;4991257;28;20492;-75
2023/10/03 05:31:40;;;;;;;27.80;16.05;;;18.20;99.90;;;;;;4988563;28;20046;-75
2023/10/03 05:34:07;;;;;;;28.50;15.90;;;18.30;99.90;;;;;;5003140;28;20042;-75
2023/10/03 05:36:33;;;;;;;27.95;15.30;;;18.30;99.90;;;;;;4984774;28;20061;-75
2023/10/03 05:38:58;;;;;;;27.55;14.82;;;18.30;99.90;;;;;;4973205;28;20042;-75
2023/10/03 05:41:24;;;;;;;26.20;14.05;;;18.40;99.90;;;;;;4985412;28;20045;-75
2023/10/03 05:43:51;;;;;;;26.73;16.02;;;18.40;99.90;;;;;;4985370;28;20034;-75
2023/10/03 05:46:17;;;;;;;22.27;13.77;;;18.40;99.90;;;;;;4979251;28;20629;-75
2023/10/03 05:48:43;;;;;;;25.60;14.55;;;18.50;99.90;;;;;;4987927;28;20076;-75
2023/10/03 05:51:09;;;;;;;24.23;14.05;;;18.50;99.90;;;;;;4969041;28;20049;-75
2023/10/03 05:53:35;;;;;;;27.15;14.38;;;18.50;99.90;;;;;;4981901;28;20038;-75
2023/10/03 05:56:04;;;;;;;24.08;13.18;;;18.50;99.90;;;;;;5003450;28;20038;-75
2023/10/03 05:58:30;;;;;;;28.50;13.85;;;18.50;99.90;;;;;;4993213;28;20048;-75
2023/10/03 06:00:56;;;;;;;21.88;12.60;;;18.60;99.90;;;;;;4986910;28;20050;-75
2023/10/03 06:03:22;;;;;;;21.00;12.55;;;18.60;99.90;;;;;;4985139;28;20034;-75
2023/10/03 06:05:47;;;;;;;24.23;12.32;;;18.60;99.90;;;;;;4995603;28;20049;-75
2023/10/03 06:08:13;;;;;;;20.95;11.52;;;18.60;99.90;;;;;;4991048;28;20042;-75
2023/10/03 06:10:39;;;;;;;22.40;11.90;;;18.60;99.90;;;;;;5001078;28;20054;-74
2023/10/03 06:13:11;;;;;;;25.60;11.60;;;18.60;99.90;;;;;;4989462;28;20161;-76
2023/10/03 06:15:46;;;;;;;23.88;11.85;;;18.60;99.90;;;;;;4971404;28;20062;-74
2023/10/03 06:18:11;;;;;;;21.40;11.10;;;18.70;99.90;;;;;;4985811;28;20544;-74
2023/10/03 06:20:38;;;;;;;18.33;11.15;;;18.70;99.90;;;;;;5003194;28;20145;-75
2023/10/03 06:23:04;;;;;;;19.65;10.73;;;18.60;99.90;;;;;;4974132;28;20045;-78
2023/10/03 06:25:31;;;;;;;19.83;10.27;;;18.70;99.90;;;;;;5004476;28;20042;-76
2023/10/03 06:27:59;;;;;;;17.40;10.57;;;18.70;99.90;;;;;;4969728;28;20381;-76
2023/10/03 06:30:25;;;;;;;19.10;9.60;;;18.60;99.90;;;;;;4989779;28;20050;-75
2023/10/03 06:32:51;;;;;;;17.42;9.50;;;18.70;99.90;;;;;;4954979;28;20133;-76
2023/10/03 06:35:17;;;;;;;20.17;9.70;;;18.70;99.90;;;;;;4989620;28;20050;-76
2023/10/03 06:37:44;;;;;;;16.25;8.60;;;18.60;99.90;;;;;;4969084;28;20034;-75
2023/10/03 06:40:13;;;;;;;17.83;8.13;;;18.70;99.90;;;;;;5002731;28;20049;-75
2023/10/03 06:42:40;;;;;;;17.70;7.55;;;18.70;99.90;;;;;;4979597;28;20046;-75
2023/10/03 06:45:09;;;;;;;11.93;6.95;;;18.60;99.90;;;;;;4986704;28;20038;-75
2023/10/03 06:47:37;;;;;;;12.02;6.68;;;18.60;99.90;;;;;;4970490;28;20081;-74
2023/10/03 06:50:05;;;;;;;15.85;6.97;;;18.60;99.90;;;;;;4961684;28;20539;-74
2023/10/03 06:52:32;;;;;;;14.18;7.13;;;18.60;99.90;;;;;;4959884;28;20038;-74
2023/10/03 06:54:59;;;;;;;17.48;7.00;;;18.60;99.90;;;;;;4985181;28;20052;-74
2023/10/03 06:57:25;;;;;;;16.63;7.38;;;18.60;99.90;;;;;;4969126;28;20132;-74
2023/10/03 06:59:52;;;;;;;14.68;6.85;;;18.50;99.90;;;;;;4973151;28;20068;-74
2023/10/03 07:02:18;;;;;;;22.27;7.25;;;18.50;99.90;;;;;;4972290;28;20046;-76
2023/10/03 07:04:44;;;;;;;13.60;6.28;;;18.50;99.90;;;;;;4989242;28;20496;-74
2023/10/03 07:07:11;;;;;;;15.35;6.93;;;18.50;99.90;;;;;;4959517;28;20076;-74
2023/10/03 07:09:38;;;;;;;12.75;6.35;;;18.50;99.90;;;;;;4986110;28;20038;-74
2023/10/03 07:12:07;;;;;;;12.40;6.18;;;18.50;99.90;;;;;;4985804;28;20425;-75
2023/10/03 07:14:35;;;;;;;13.15;6.05;;;18.50;99.90;;;;;;4969482;28;20050;-74
2023/10/03 07:17:02;;;;;;;15.77;5.18;;;18.50;99.90;;;;;;4963183;28;20030;-75
2023/10/03 07:19:32;;;;;;;11.85;6.00;;;18.50;99.90;;;;;;4957031;28;20052;-75
2023/10/03 07:21:58;;;;;;;14.27;5.57;;;18.50;99.90;;;;;;4979459;28;20042;-75
2023/10/03 07:24:28;;;;;;;16.70;5.93;;;18.50;99.90;;;;;;4964169;28;20045;-74
2023/10/03 07:26:54;;;;;;;11.88;5.72;;;18.50;99.90;;;;;;4948250;28;20057;-75
2023/10/03 07:29:21;;;;;;;12.68;5.57;;;18.60;99.90;;;;;;4970314;28;20038;-75
2023/10/03 07:31:47;;;;;;;12.27;5.28;;;18.60;99.90;;;;;;4970497;28;20118;-75
2023/10/03 07:34:17;;;;;;;11.38;5.35;;;18.60;99.90;;;;;;4984514;28;20413;-75
2023/10/03 07:36:43;;;;;;;14.52;5.32;;;18.60;99.90;;;;;;4971191;28;20484;-75
2023/10/03 07:39:09;;;;;;;12.88;6.00;;;18.60;99.90;;;;;;4971316;28;20031;-73
2023/10/03 07:41:35;;;;;;;13.15;5.65;;;18.60;99.90;;;;;;4946363;28;20092;-74
2023/10/03 07:44:01;;;;;;;9.50;5.60;;;18.60;99.90;;;;;;4985648;28;20046;-73
2023/10/03 07:46:27;;;;;;;12.25;5.72;;;18.60;99.90;;;;;;4971152;28;20489;-74
2023/10/03 07:48:53;;;;;;;10.88;5.60;;;18.60;99.90;;;;;;4987728;28;20047;-74
2023/10/03 07:51:25;;;;;;;11.48;5.80;;;18.60;99.90;;;;;;4960005;28;20508;-75
2023/10/03 07:53:52;;;;;;;12.82;6.68;;;18.50;99.90;;;;;;4969463;28;20073;-75
2023/10/03 07:56:52;;;;;;;10.85;6.05;;;18.50;99.90;;;;;;4968605;28;20038;-75
2023/10/03 07:59:11;;;;;;;12.73;6.90;;;18.30;99.90;;;;;;4967452;28;20050;-75
2023/10/03 08:01:39;;;;;;;12.73;6.57;;;18.20;99.90;;;;;;4959391;28;20108;-74
2023/10/03 08:04:08;;;;;;;14.80;6.38;;;18.20;99.90;;;;;;4959714;28;20092;-75
2023/10/03 08:06:34;;;;;;;14.75;6.15;;;18.20;99.90;;;;;;4943720;28;20053;-74
2023/10/03 08:09:00;;;;;;;16.73;6.90;;;18.20;99.90;;;;;;4986264;28;20066;-76
2023/10/03 08:11:30;;;;;;;14.70;6.13;;;18.10;99.90;;;;;;4966403;28;20044;-76
2023/10/03 08:13:57;;;;;;;14.60;6.95;;;18.10;99.90;;;;;;4960676;28;20473;-75
2023/10/03 08:16:23;;;;;;;14.35;6.47;;;18.10;99.90;;;;;;4978112;28;20034;-74
2023/10/03 08:19:08;;;;;;;12.27;6.85;;;18.10;99.90;;;;;;4961397;28;20057;-74
2023/10/03 08:21:35;;;;;;;13.00;6.60;;;18.10;99.90;;;;;;5001291;28;20120;-74
2023/10/03 08:24:09;;;;;;;12.57;6.25;;;18.10;99.90;;;;;;5002122;28;20046;-74
2023/10/03 08:26:39;;;;;;;9.48;5.60;;;18.10;99.90;;;;;;4973530;28;20587;-74
2023/10/03 08:29:04;;;;;;;11.85;6.53;;;18.10;99.90;;;;;;4982965;28;20065;-74
2023/10/03 08:31:38;;;;;;;11.32;5.53;;;18.10;99.90;;;;;;4976864;28;20429;-73
2023/10/03 08:34:10;;;;;;;11.23;6.53;;;18.00;99.90;;;;;;4991967;28;20034;-74
2023/10/03 08:36:37;;;;;;;12.55;6.80;;;17.90;99.90;;;;;;5008965;28;20060;-74
2023/10/03 08:39:12;;;;;;;12.23;5.85;;;17.80;99.90;;;;;;4986980;28;20038;-74
2023/10/03 08:42:18;;;;;;;17.13;7.00;;;17.70;99.90;;;;;;5006345;28;20046;-74
2023/10/03 08:44:56;;;;;;;12.43;6.82;;;17.70;99.90;;;;;;4975042;28;20042;-74
2023/10/03 08:47:31;;;;;;;13.68;6.50;;;17.60;99.90;;;;;;5010588;28;20524;-74
2023/10/03 08:50:13;;;;;;;12.68;6.38;;;17.50;99.90;;;;;;4999438;28;20042;-74
2023/10/03 08:52:46;;;;;;;12.15;6.13;;;17.40;99.90;;;;;;4979360;28;20037;-74
2023/10/03 08:55:19;;;;;;;12.88;6.13;;;17.40;99.90;;;;;;5010193;28;20107;-74
2023/10/03 08:57:49;;;;;;;16.85;6.30;;;17.40;99.90;;;;;;4999383;28;20041;-74
2023/10/03 09:00:16;;;;;;;14.73;6.43;;;17.30;99.90;;;;;;4988331;28;20046;-74
2023/10/03 09:02:46;;;;;;;13.93;5.80;;;17.30;99.90;;;;;;4969166;28;20034;-74
2023/10/03 09:05:20;;;;;;;9.98;4.53;;;17.30;99.90;;;;;;5009120;28;20053;-74
2023/10/03 09:07:47;;;;;;;10.55;4.05;;;17.30;99.90;;;;;;4975338;28;20659;-74
2023/10/03 09:10:24;;;;;;;12.75;3.97;;;17.30;99.90;;;;;;4988713;28;20200;-75
2023/10/03 09:13:03;;;;;;;7.22;3.97;;;17.20;99.90;;;;;;4972644;28;20038;-74
2023/10/03 09:15:37;;;;;;;10.68;3.70;;;17.20;99.90;;;;;;4963175;28;20081;-74
2023/10/03 09:18:10;;;;;;;9.23;3.97;;;17.20;99.90;;;;;;4992278;28;20038;-75
2023/10/03 09:20:42;;;;;;;7.68;3.90;;;17.20;99.90;;;;;;4971365;28;20514;-74
2023/10/03 09:23:08;;;;;;;;;;;17.10;99.90;;;;;;4991039;28;20049;-74
2023/10/03 09:25:38;;;;;;;8.70;2.75;;;17.10;99.90;;;;;;4989653;28;20137;-74
2023/10/03 09:28:08;;;;;;;8.95;3.58;;;17.00;99.90;;;;;;4988772;28;20121;-75
2023/10/03 09:30:37;;;;;;;7.57;2.92;;;17.00;99.90;;;;;;4962984;28;20128;-75
2023/10/03 09:33:12;;;;;;;5.93;2.63;;;16.90;99.90;;;;;;4997452;28;20043;-75
2023/10/03 09:35:41;;;;;;;9.88;2.35;;;16.90;99.90;;;;;;4962814;28;20053;-75
2023/10/03 09:38:09;;;;;;;8.40;2.40;;;16.90;99.90;;;;;;4976962;28;20041;-74
2023/10/03 09:40:51;;;;;;;5.53;2.53;;;16.90;99.90;;;;;;4995848;28;20428;-74
2023/10/03 09:43:19;;;;;;;6.63;2.80;;;16.80;99.90;;;;;;4976649;28;20030;-74
2023/10/03 09:45:55;;;;;;;5.53;2.10;;;16.80;99.90;;;;;;4976106;28;20070;-74
2023/10/03 09:48:24;;;;;;;6.32;2.40;;;16.80;99.90;;;;;;4977177;28;20087;-74
2023/10/03 09:50:53;;;;;;;8.35;2.78;;;16.80;99.90;;;;;;4993275;28;20083;-74
2023/10/03 09:53:27;;;;;;;7.60;1.83;;;16.90;99.90;;;;;;4976516;28;20100;-74
2023/10/03 09:55:55;;;;;;;3.60;1.20;;;16.80;99.90;;;;;;4994510;28;20641;-74
2023/10/03 09:58:25;;;;;;;4.45;1.33;;;16.60;99.90;;;;;;4991189;28;20039;-75
2023/10/03 10:00:55;;;;;;;3.33;1.60;;;16.40;99.90;;;;;;4955740;28;20521;-74
2023/10/03 10:03:28;;;;;;;3.30;1.67;;;16.30;99.90;;;;;;4975932;28;20039;-74
2023/10/03 10:06:14;;;;;;;;;;;16.30;99.90;;;;;;4989409;28;20073;-74
2023/10/03 10:08:41;;;;;;;9.77;1.98;;;16.30;99.90;;;;;;4985692;28;20357;-75
2023/10/03 10:11:09;;;;;;;4.47;1.65;;;16.20;99.90;;;;;;4986456;28;20038;-74
2023/10/03 10:13:44;;;;;;;8.85;1.55;;;16.20;99.90;;;;;;4997139;28;20030;-74
2023/10/03 10:18:45;;;;;;;1.95;0.95;;;16.10;99.90;;;;;;5010178;28;20077;-74
2023/10/03 10:21:36;;;;;;;2.83;1.20;;;16.10;99.90;;;;;;5002219;28;20072;-75
2023/10/03 10:24:20;;;;;;;2.95;1.10;;;15.90;99.90;;;;;;5001654;28;20046;-74
2023/10/03 10:26:52;;;;;;;4.20;1.10;;;15.80;99.90;;;;;;5024915;28;20045;-74
2023/10/03 10:29:24;;;;;;;3.90;1.05;;;15.70;99.90;;;;;;5008899;28;20042;-74
2023/10/03 10:32:00;;;;;;;;;;;15.70;99.90;;;;;;5006643;28;20041;-74
2023/10/03 10:34:32;;;;;;;2.10;1.08;;;15.70;99.90;;;;;;5012394;28;20480;-74
2023/10/03 10:37:02;;;;;;;2.33;1.13;;;15.70;99.90;;;;;;5006505;28;20045;-75
2023/10/03 10:39:56;;;;;;;2.17;1.00;;;15.70;99.90;;;;;;5009433;28;20049;-76
2023/10/03 10:42:25;;;;;;;4.53;1.30;;;15.70;99.90;;;;;;5010867;28;20046;-76
2023/10/03 10:45:03;;;;;;;3.20;1.27;;;15.70;99.90;;;;;;4994382;28;20044;-75
2023/10/03 10:47:32;;;;;;;2.85;1.10;;;15.70;99.90;;;;;;4993724;28;20034;-75
2023/10/03 10:50:00;;;;;;;6.38;1.25;;;15.70;99.90;;;;;;4985104;28;20065;-75
2023/10/03 10:52:29;;;;;;;4.22;1.48;;;15.70;99.90;;;;;;5012308;28;20509;-76
2023/10/03 10:54:58;;;;;;;4.35;1.65;;;15.70;99.90;;;;;;4988211;28;20125;-75
2023/10/03 10:57:28;;;;;;;6.00;1.75;;;15.70;99.90;;;;;;5003691;28;20504;-77
2023/10/03 10:59:55;;;;;;;6.10;1.52;;;15.80;99.90;;;;;;4979115;28;20049;-76
2023/10/03 11:02:22;;;;;;;5.00;1.60;;;15.80;99.90;;;;;;4999630;28;20046;-77
2023/10/03 11:04:55;;;;;;;5.07;1.65;;;15.80;99.90;;;;;;4980169;28;20042;-77
2023/10/03 11:07:26;;;;;;;4.63;1.67;;;15.80;99.90;;;;;;4999343;28;20116;-76
2023/10/03 11:09:54;;;;;;;4.07;1.42;;;15.90;99.90;;;;;;4998976;28;20512;-76
2023/10/03 11:12:27;;;;;;;3.40;1.42;;;15.90;99.90;;;;;;5008592;28;20046;-76
2023/10/03 11:14:57;;;;;;;4.57;1.40;;;15.90;99.90;;;;;;4991590;28;20038;-76
2023/10/03 11:17:23;;;;;;;6.18;1.45;;;15.90;99.90;;;;;;4986170;28;20033;-76
2023/10/03 11:19:50;;;;;;;4.05;1.63;;;15.90;99.90;;;;;;4983647;28;20075;-76
2023/10/03 11:22:17;;;;;;;4.75;1.77;;;16.00;99.90;;;;;;4984264;28;20499;-80
2023/10/03 11:24:45;;;;;;;3.72;1.38;;;16.10;99.90;;;;;;4982787;28;20397;-76
2023/10/03 11:27:30;;;;;;;3.30;1.58;;;16.10;99.90;;;;;;4980625;28;20041;-76
2023/10/03 11:29:57;;;;;;;3.33;1.70;;;16.10;99.90;;;;;;4981088;28;20051;-75
2023/10/03 11:32:32;;;;;;;5.72;1.92;;;16.20;99.90;;;;;;4996353;28;20034;-75
2023/10/03 11:34:59;;;;;;;4.45;1.60;;;16.20;99.90;;;;;;5007220;28;20057;-75
2023/10/03 11:37:36;;;;;;;6.18;1.67;;;16.30;99.90;;;;;;4965339;28;20045;-75
2023/10/03 11:40:20;;;;;;;3.97;1.73;;;16.30;99.90;;;;;;5001073;28;20128;-75
2023/10/03 11:43:07;;;;;;;3.75;1.60;;;16.30;99.90;;;;;;4997242;28;20045;-75
2023/10/03 11:45:34;;;;;;;3.55;1.58;;;16.30;99.90;;;;;;4995530;28;20038;-75
2023/10/03 11:48:08;;;;;;;4.57;1.60;;;16.20;99.90;;;;;;5005259;28;20440;-75
2023/10/03 11:50:36;;;;;;;5.72;1.85;;;16.20;99.90;;;;;;4984988;28;20125;-75
2023/10/03 11:53:03;;;;;;;7.25;2.63;;;16.10;99.90;;;;;;4968351;28;20049;-75
2023/10/03 11:55:32;;;;;;;6.55;1.80;;;16.00;99.90;;;;;;4968588;28;20046;-75
2023/10/03 11:58:01;;;;;;;5.05;1.95;;;16.00;99.90;;;;;;4986539;28;20045;-75
2023/10/03 12:00:28;;;;;;;5.00;2.10;;;15.90;99.90;;;;;;4984208;28;20580;-75
2023/10/03 12:02:55;;;;;;;5.15;1.70;;;15.70;99.90;;;;;;4960297;28;20042;-75
2023/10/03 12:05:22;;;;;;;4.35;1.55;;;15.40;99.90;;;;;;4986784;28;20049;-76
2023/10/03 12:07:50;;;;;;;3.08;1.58;;;15.10;99.90;;;;;;4986300;28;20046;-75
2023/10/03 12:10:17;;;;;;;5.40;1.80;;;15.00;99.90;;;;;;4987090;28;20038;-75
2023/10/03 12:12:43;;;;;;;4.45;1.80;;;14.80;99.90;;;;;;4986603;28;20073;-76
2023/10/03 12:15:14;;;;;;;4.88;2.05;;;14.60;99.90;;;;;;4966974;28;20146;-75
2023/10/03 12:17:47;;;;;;;4.90;1.98;;;14.60;99.90;;;;;;4959905;28;20125;-75
2023/10/03 12:20:15;;;;;;;5.13;1.67;;;14.50;99.90;;;;;;4969866;28;20042;-75
2023/10/03 12:22:45;;;;;;;4.53;2.42;;;14.50;99.90;;;;;;4982274;28;20038;-75
2023/10/03 12:25:12;;;;;;;4.97;2.25;;;14.40;99.90;;;;;;4968125;28;20091;-75
2023/10/03 12:27:39;;;;;;;6.88;2.60;;;14.40;99.90;;;;;;4968180;28;20088;-75
2023/10/03 12:30:08;;;;;;;3.63;2.10;;;14.30;99.90;;;;;;4971220;28;20042;-75
2023/10/03 12:32:35;;;;;;;6.32;2.45;;;14.30;99.90;;;;;;4972216;28;20037;-75
2023/10/03 12:35:03;;;;;;;6.10;2.78;;;14.30;99.90;;;;;;4966983;28;20137;-75
2023/10/03 12:37:30;;;;;;;4.57;2.47;;;14.20;99.90;;;;;;4960410;28;20466;-75
2023/10/03 12:40:01;;;;;;;6.68;2.60;;;14.20;99.90;;;;;;4986206;28;20049;-75
2023/10/03 12:42:28;;;;;;;7.22;2.92;;;14.30;99.90;;;;;;4973867;28;20038;-76
2023/10/03 12:45:00;;;;;;;5.88;2.70;;;14.20;99.90;;;;;;4987931;28;20111;-75
2023/10/03 12:47:31;;;;;;;5.80;2.90;;;14.20;99.90;;;;;;4970162;28;20076;-75
2023/10/03 12:49:58;;;;;;;6.43;2.80;;;14.10;99.90;;;;;;4974819;28;20130;-76